createdAt,value
2022-09-02T00:02:28.484Z,91.26
2022-09-02T00:05:01.481Z,91.34
2022-09-02T00:07:48.344Z,91.92
2022-09-02T00:10:21.441Z,91.89
2022-09-02T00:13:08.364Z,91.86
2022-09-02T00:15:41.458Z,91.91
2022-09-02T00:18:28.386Z,92.36
2022-09-02T00:21:02.433Z,91.62
2022-09-02T00:23:50.374Z,91.04
2022-09-02T00:26:24.732Z,90.67
2022-09-02T00:29:12.370Z,90.60
2022-09-02T00:31:52.489Z,91.04
2022-09-02T00:34:46.388Z,91.06
2022-09-02T00:37:40.378Z,90.72
2022-09-02T00:40:27.411Z,90.83
2022-09-02T00:43:07.389Z,90.78
2022-09-02T00:46:02.462Z,91.45
2022-09-02T00:49:45.409Z,91.88
2022-09-02T00:52:28.381Z,92.49
2022-09-02T00:55:21.405Z,93.01
2022-09-02T00:58:00.895Z,93.46
2022-09-02T01:00:51.484Z,93.45
2022-09-02T01:03:28.870Z,93.03
2022-09-02T01:06:22.392Z,92.46
2022-09-02T01:09:09.433Z,92.94
2022-09-02T01:12:03.378Z,92.74
2022-09-02T01:14:57.397Z,92.96
2022-09-02T01:17:52.386Z,92.81
2022-09-02T01:20:36.413Z,93.08
2022-09-02T01:23:33.780Z,92.93
2022-09-02T01:26:21.392Z,93.11
2022-09-02T01:28:54.473Z,93.00
2022-09-02T01:31:41.462Z,92.85
2022-09-02T01:34:21.419Z,92.87
2022-09-02T01:37:08.410Z,92.90
2022-09-02T01:39:48.392Z,92.68
2022-09-02T01:42:36.411Z,93.03
2022-09-02T01:45:10.795Z,93.13
2022-09-02T01:47:58.408Z,93.37
2022-09-02T01:50:31.690Z,93.59
2022-09-02T01:53:18.451Z,94.17
2022-09-02T01:55:59.413Z,94.44
2022-09-02T01:58:53.391Z,94.65
2022-09-02T02:01:42.519Z,95.08
2022-09-02T02:04:17.481Z,94.92
2022-09-02T02:07:04.426Z,94.99
2022-09-02T02:09:44.415Z,94.75
2022-09-02T02:12:38.425Z,94.56
2022-09-02T02:18:19.419Z,94.35
2022-09-02T02:21:00.429Z,94.01
2022-09-02T02:23:54.417Z,94.35
2022-09-02T02:26:42.444Z,94.54
2022-09-02T02:29:29.413Z,94.56
2022-09-02T02:32:03.361Z,94.98
2022-09-02T02:34:50.430Z,95.11
2022-09-02T02:37:25.616Z,95.12
2022-09-02T02:40:12.467Z,95.13
2022-09-02T02:42:45.878Z,95.14
2022-09-02T02:45:32.432Z,94.92
2022-09-02T02:48:26.429Z,95.14
2022-09-02T02:51:21.427Z,94.88
2022-09-02T02:54:09.442Z,94.79
2022-09-02T02:56:42.499Z,94.60
2022-09-02T02:59:29.446Z,94.83
2022-09-02T03:02:02.573Z,94.99
2022-09-02T03:04:49.484Z,94.99
2022-09-02T03:07:29.461Z,95.12
2022-09-02T03:10:21.502Z,95.34
2022-09-02T03:13:01.472Z,95.15
2022-09-02T03:15:49.505Z,95.13
2022-09-02T03:18:22.614Z,95.29
2022-09-02T03:21:14.456Z,95.89
2022-09-02T03:23:47.488Z,95.93
2022-09-02T03:26:35.471Z,96.24
2022-09-02T03:29:08.529Z,96.40
2022-09-02T03:31:55.477Z,96.65
2022-09-02T03:34:30.508Z,96.64
2022-09-02T03:37:17.477Z,97.03
2022-09-02T03:39:50.531Z,97.00
2022-09-02T03:42:37.475Z,96.99
2022-09-02T03:45:22.444Z,96.70
2022-09-02T03:48:16.451Z,96.27
2022-09-02T03:51:03.462Z,95.82
2022-09-02T03:53:43.470Z,95.58
2022-09-02T03:56:31.480Z,95.69
2022-09-02T03:59:11.474Z,95.72
2022-09-02T04:02:05.535Z,95.46
2022-09-02T04:04:59.478Z,95.44
2022-09-02T04:07:47.467Z,95.85
2022-09-02T04:10:22.076Z,96.09
2022-09-02T04:13:08.475Z,96.49
2022-09-02T04:15:48.248Z,96.90
2022-09-02T04:18:36.475Z,97.25
2022-09-02T04:21:16.464Z,97.42
2022-09-02T04:24:10.476Z,97.68
2022-09-02T04:27:00.694Z,97.66
2022-09-02T04:29:36.570Z,97.75
2022-09-02T04:32:23.489Z,97.82
2022-09-02T04:34:56.583Z,97.49
2022-09-02T04:37:43.477Z,97.65
2022-09-02T04:40:16.680Z,97.67
2022-09-02T04:43:03.499Z,97.47
2022-09-02T04:45:36.563Z,97.31
2022-09-02T04:48:23.475Z,97.65
2022-09-02T04:50:56.570Z,97.28
2022-09-02T04:53:43.485Z,97.20
2022-09-02T04:56:19.911Z,97.63
2022-09-02T04:59:06.463Z,97.42
2022-09-02T05:01:42.294Z,97.31
2022-09-02T05:04:30.485Z,97.45
2022-09-02T05:07:04.621Z,97.50
2022-09-02T05:09:51.514Z,97.97
2022-09-02T05:12:34.487Z,98.21
2022-09-02T05:15:28.515Z,98.10
2022-09-02T05:18:22.489Z,98.37
2022-09-02T05:21:13.497Z,98.48
2022-09-02T05:23:54.525Z,98.26
2022-09-02T05:26:42.481Z,97.90
2022-09-02T05:29:22.502Z,97.95
2022-09-02T05:32:16.494Z,97.43
2022-09-02T05:35:03.512Z,96.98
2022-09-02T05:37:36.687Z,97.08
2022-09-02T05:40:23.561Z,96.85
2022-09-02T05:42:56.585Z,96.96
2022-09-02T05:45:45.524Z,97.18
2022-09-02T05:48:57.512Z,97.59
2022-09-02T05:52:02.509Z,97.33
2022-09-02T05:54:49.516Z,97.96
2022-09-02T05:57:23.631Z,97.74
2022-09-02T06:00:17.748Z,97.38
2022-09-02T06:02:58.604Z,96.56
2022-09-02T06:05:47.511Z,96.28
2022-09-02T06:08:27.516Z,95.75
2022-09-02T06:11:24.506Z,95.08
2022-09-02T06:14:12.540Z,94.77
2022-09-02T06:16:47.666Z,94.17
2022-09-02T06:19:39.522Z,93.51
2022-09-02T06:22:12.651Z,92.56
2022-09-02T06:24:59.509Z,91.79
2022-09-02T06:27:33.602Z,91.66
2022-09-02T06:30:20.526Z,91.58
2022-09-02T06:32:54.170Z,89.37
2022-09-02T06:35:47.511Z,89.20
2022-09-02T06:38:21.640Z,88.68
2022-09-02T06:41:08.541Z,87.96
2022-09-02T06:43:42.702Z,86.30
2022-09-02T06:46:39.617Z,86.00
2022-09-02T06:49:26.555Z,85.81
2022-09-02T06:52:01.603Z,86.29
2022-09-02T06:54:48.547Z,85.52
2022-09-02T06:57:22.645Z,84.61
2022-09-02T07:00:19.549Z,84.91
2022-09-02T07:03:19.553Z,84.11
2022-09-02T07:06:16.574Z,83.27
2022-09-02T07:08:50.685Z,82.93
2022-09-02T07:11:37.540Z,82.93
2022-09-02T07:14:17.592Z,83.29
2022-09-02T07:17:11.649Z,82.67
2022-09-02T07:19:58.575Z,82.17
2022-09-02T07:22:34.619Z,81.09
2022-09-02T07:25:22.582Z,80.80
2022-09-02T07:27:56.378Z,80.92
2022-09-02T07:30:43.701Z,80.35
2022-09-02T07:33:20.970Z,79.88
2022-09-02T07:36:12.507Z,80.56
2022-09-02T07:38:54.611Z,79.58
2022-09-02T07:41:49.551Z,79.73
2022-09-02T07:44:43.574Z,79.44
2022-09-02T07:47:37.646Z,79.37
2022-09-02T07:50:25.571Z,79.25
2022-09-02T07:52:59.659Z,79.28
2022-09-02T07:55:47.561Z,79.31
2022-09-02T07:58:23.743Z,79.04
2022-09-02T08:01:11.699Z,80.00
2022-09-02T08:03:47.676Z,78.57
2022-09-02T08:06:35.582Z,78.56
2022-09-02T08:09:14.637Z,78.47
2022-09-02T08:12:01.600Z,78.96
2022-09-02T08:14:41.568Z,79.02
2022-09-02T08:17:35.598Z,77.76
2022-09-02T08:20:23.602Z,76.47
2022-09-02T08:23:05.852Z,76.64
2022-09-02T08:25:58.581Z,75.75
2022-09-02T08:28:35.293Z,75.45
2022-09-02T08:31:21.684Z,75.92
2022-09-02T08:33:54.741Z,76.20
2022-09-02T08:36:41.597Z,75.11
2022-09-02T08:39:20.768Z,76.00
2022-09-02T08:42:21.572Z,75.23
2022-09-02T08:44:56.681Z,75.68
2022-09-02T08:47:46.590Z,74.99
2022-09-02T08:50:31.626Z,74.78
2022-09-02T08:53:36.611Z,74.10
2022-09-02T08:56:19.618Z,73.98
2022-09-02T08:59:09.611Z,71.79
2022-09-02T09:02:26.667Z,71.52
2022-09-02T09:05:31.632Z,69.99
2022-09-02T09:08:38.663Z,70.78
2022-09-02T09:11:34.622Z,71.26
2022-09-02T09:14:29.632Z,69.73
2022-09-02T09:17:38.619Z,69.33
2022-09-02T09:20:29.620Z,66.34
2022-09-02T09:23:11.638Z,69.00
2022-09-02T09:26:12.632Z,70.27
2022-09-02T09:29:02.629Z,70.58
2022-09-02T09:31:38.813Z,70.45
2022-09-02T09:34:25.621Z,70.92
2022-09-02T09:37:07.635Z,70.95
2022-09-02T09:39:54.622Z,70.52
2022-09-02T09:42:49.576Z,69.10
2022-09-02T09:45:42.679Z,68.61
2022-09-02T09:48:22.653Z,68.61
2022-09-02T09:51:16.658Z,69.68
2022-09-02T09:54:29.613Z,69.63
2022-09-02T09:57:25.638Z,69.67
2022-09-02T10:00:17.709Z,70.50
2022-09-02T10:03:13.654Z,70.34
2022-09-02T10:05:46.723Z,70.35
2022-09-02T10:08:34.646Z,69.82
2022-09-02T10:11:12.752Z,68.95
2022-09-02T10:14:12.654Z,70.45
2022-09-02T10:17:05.650Z,70.17
2022-09-02T10:20:21.647Z,70.82
2022-09-02T10:22:59.977Z,69.26
2022-09-02T10:26:09.635Z,68.30
2022-09-02T10:29:15.671Z,66.65
2022-09-02T10:32:05.657Z,68.83
2022-09-02T10:34:54.651Z,69.06
2022-09-02T10:38:06.749Z,69.42
2022-09-02T10:41:01.674Z,69.36
2022-09-02T10:44:10.659Z,69.63
2022-09-02T10:47:13.679Z,68.83
2022-09-02T10:50:41.666Z,68.33
2022-09-02T10:53:39.788Z,67.00
2022-09-02T10:56:33.673Z,67.96
2022-09-02T10:59:28.743Z,69.00
2022-09-02T11:02:34.696Z,69.33
2022-09-02T11:05:20.803Z,69.91
2022-09-02T11:08:31.395Z,70.01
2022-09-02T11:11:17.669Z,70.30
2022-09-02T11:14:10.776Z,70.79
2022-09-02T11:17:23.693Z,70.80
2022-09-02T11:20:09.778Z,71.40
2022-09-02T11:23:12.669Z,70.01
2022-09-02T11:25:56.805Z,70.73
2022-09-02T11:28:50.683Z,70.57
2022-09-02T11:31:39.319Z,69.06
2022-09-02T11:34:41.724Z,70.29
2022-09-02T11:37:56.692Z,70.12
2022-09-02T11:44:00.760Z,71.04
2022-09-02T11:47:03.748Z,71.06
2022-09-02T11:50:03.702Z,71.51
2022-09-02T11:53:31.721Z,71.04
2022-09-02T11:56:26.697Z,70.53
2022-09-02T11:58:59.791Z,70.84
2022-09-02T12:02:12.705Z,69.00
2022-09-02T12:05:00.094Z,68.44
2022-09-02T12:07:56.687Z,68.72
2022-09-02T12:10:54.712Z,68.29
2022-09-02T12:13:55.721Z,69.00
2022-09-02T12:16:55.706Z,68.82
2022-09-02T12:19:46.713Z,68.09
2022-09-02T12:22:31.745Z,68.31
2022-09-02T12:25:40.731Z,68.08
2022-09-02T12:28:32.715Z,67.87
2022-09-02T12:31:15.837Z,68.53
2022-09-02T12:34:02.717Z,67.58
2022-09-02T12:36:51.738Z,68.00
2022-09-02T12:39:45.704Z,67.62
2022-09-02T12:42:39.718Z,67.58
2022-09-02T12:45:29.407Z,69.06
2022-09-02T12:48:38.138Z,69.51
2022-09-02T12:52:08.730Z,68.36
2022-09-02T12:54:56.741Z,66.76
2022-09-02T12:57:45.940Z,67.73
2022-09-02T13:00:54.767Z,66.83
2022-09-02T13:04:04.751Z,65.77
2022-09-02T13:07:44.790Z,67.12
2022-09-02T13:10:41.740Z,67.58
2022-09-02T13:13:21.876Z,68.18
2022-09-02T13:16:20.777Z,67.74
2022-09-02T13:19:38.754Z,67.21
2022-09-02T13:23:01.754Z,67.58
2022-09-02T13:26:45.509Z,68.06
2022-09-02T13:30:00.758Z,68.31
2022-09-02T13:32:37.858Z,68.42
2022-09-02T13:35:30.751Z,68.29
2022-09-02T13:38:06.969Z,68.77
2022-09-02T13:40:53.773Z,69.22
2022-09-02T13:43:36.765Z,68.30
2022-09-02T13:46:30.775Z,68.40
2022-09-02T13:49:37.330Z,68.19
2022-09-02T13:53:27.713Z,68.79
2022-09-02T13:55:48.779Z,69.20
2022-09-02T13:58:50.867Z,68.79
2022-09-02T14:01:40.017Z,68.96
2022-09-02T14:04:24.767Z,68.26
2022-09-02T14:07:15.760Z,69.60
2022-09-02T14:09:50.867Z,68.55
2022-09-02T14:12:40.779Z,68.95
2022-09-02T14:15:16.943Z,67.66
2022-09-02T14:18:35.783Z,68.67
2022-09-02T14:21:32.776Z,68.14
2022-09-02T14:24:28.780Z,67.85
2022-09-02T14:27:28.771Z,67.72
2022-09-02T14:30:09.252Z,68.21
2022-09-02T14:32:55.782Z,67.08
2022-09-02T14:35:30.082Z,67.62
2022-09-02T14:38:29.790Z,68.26
2022-09-02T14:41:12.946Z,68.03
2022-09-02T14:44:14.791Z,67.89
2022-09-02T14:47:02.776Z,68.11
2022-09-02T14:50:01.795Z,67.93
2022-09-02T14:52:54.797Z,67.69
2022-09-02T14:55:53.789Z,68.32
2022-09-02T14:58:48.266Z,68.05
2022-09-02T15:01:34.860Z,68.54
2022-09-02T15:04:07.927Z,69.15
2022-09-02T15:06:55.789Z,69.39
2022-09-02T15:09:28.918Z,69.16
2022-09-02T15:12:15.797Z,69.18
2022-09-02T15:14:53.922Z,69.63
2022-09-02T15:17:40.803Z,69.66
2022-09-02T15:20:21.838Z,68.81
2022-09-02T15:23:15.812Z,69.46
2022-09-02T15:26:09.799Z,67.89
2022-09-02T15:29:03.818Z,68.23
2022-09-02T15:31:50.818Z,69.77
2022-09-02T15:34:23.916Z,69.59
2022-09-02T15:37:13.087Z,70.28
2022-09-02T15:39:46.979Z,69.39
2022-09-02T15:42:33.809Z,69.97
2022-09-02T15:45:09.054Z,69.48
2022-09-02T15:48:02.816Z,68.91
2022-09-02T15:50:49.907Z,69.36
2022-09-02T15:53:34.838Z,70.60
2022-09-02T15:56:26.828Z,70.58
2022-09-02T15:59:02.976Z,70.18
2022-09-02T16:01:52.882Z,69.90
2022-09-02T16:04:27.407Z,70.18
2022-09-02T16:07:16.896Z,69.42
2022-09-02T16:10:01.344Z,68.62
2022-09-02T16:12:56.856Z,69.06
2022-09-02T16:15:43.844Z,69.51
2022-09-02T16:18:24.834Z,68.81
2022-09-02T16:21:13.837Z,68.21
2022-09-02T16:23:46.927Z,68.28
2022-09-02T16:26:41.850Z,68.92
2022-09-02T16:29:28.167Z,68.68
2022-09-02T16:32:27.324Z,68.56
2022-09-02T16:35:14.847Z,69.04
2022-09-02T16:37:54.824Z,68.54
2022-09-02T16:40:48.853Z,68.35
2022-09-02T16:43:38.852Z,68.78
2022-09-02T16:46:12.039Z,68.49
2022-09-02T16:48:58.863Z,68.96
2022-09-02T16:51:33.525Z,69.17
2022-09-02T16:54:21.320Z,69.56
2022-09-02T16:57:03.947Z,69.41
2022-09-02T16:59:50.882Z,70.15
2022-09-02T17:02:24.029Z,69.97
2022-09-02T17:05:10.889Z,70.07
2022-09-02T17:07:45.374Z,69.50
2022-09-02T17:10:31.855Z,70.43
2022-09-02T17:13:04.979Z,70.41
2022-09-02T17:15:51.857Z,69.91
2022-09-02T17:18:24.952Z,70.00
2022-09-02T17:21:29.887Z,70.66
2022-09-02T17:24:03.965Z,71.14
2022-09-02T17:26:53.866Z,70.83
2022-09-02T17:29:48.452Z,71.46
2022-09-02T17:32:35.871Z,71.33
2022-09-02T17:35:15.871Z,71.45
2022-09-02T17:38:09.888Z,71.88
2022-09-02T17:41:21.877Z,71.04
2022-09-02T17:44:15.887Z,71.26
2022-09-02T17:47:10.888Z,72.06
2022-09-02T17:50:04.894Z,71.76
2022-09-02T17:52:58.890Z,72.44
2022-09-02T17:55:45.919Z,72.08
2022-09-02T17:58:33.909Z,72.33
2022-09-02T18:01:31.017Z,72.96
2022-09-02T18:05:07.915Z,72.75
2022-09-02T18:08:18.974Z,73.11
2022-09-02T18:11:09.906Z,73.00
2022-09-02T18:14:20.890Z,73.65
2022-09-02T18:17:27.899Z,73.60
2022-09-02T18:20:24.890Z,72.39
2022-09-02T18:23:29.905Z,73.23
2022-09-02T18:26:25.926Z,73.11
2022-09-02T18:29:40.944Z,73.37
2022-09-02T18:33:05.914Z,73.50
2022-09-02T18:35:55.706Z,74.18
2022-09-02T18:38:59.918Z,75.23
2022-09-02T18:42:18.056Z,73.97
2022-09-02T18:45:16.290Z,74.00
2022-09-02T18:48:07.952Z,74.84
2022-09-02T18:51:07.924Z,74.97
2022-09-02T18:54:17.919Z,73.90
2022-09-02T18:57:07.922Z,74.71
2022-09-02T19:00:01.099Z,75.64
2022-09-02T19:03:00.916Z,74.85
2022-09-02T19:05:37.066Z,74.76
2022-09-02T19:08:41.927Z,75.88
2022-09-02T19:11:29.941Z,75.25
2022-09-02T19:14:42.955Z,75.87
2022-09-02T19:17:29.941Z,75.39
2022-09-02T19:20:09.930Z,75.61
2022-09-02T19:23:06.939Z,76.35
2022-09-02T19:25:53.921Z,76.65
2022-09-02T19:28:29.090Z,76.06
2022-09-02T19:31:20.984Z,75.97
2022-09-02T19:33:57.108Z,76.59
2022-09-02T19:36:46.938Z,76.54
2022-09-02T19:39:27.015Z,76.68
2022-09-02T19:42:13.940Z,76.76
2022-09-02T19:44:54.945Z,76.55
2022-09-02T19:50:55.947Z,77.50
2022-09-02T19:53:37.963Z,77.54
2022-09-02T19:56:31.960Z,77.46
2022-09-02T19:59:25.947Z,77.63
2022-09-02T20:02:13.020Z,77.86
2022-09-02T20:04:52.951Z,77.62
2022-09-02T20:07:39.961Z,77.82
2022-09-02T20:10:15.055Z,78.13
2022-09-02T20:13:06.997Z,77.84
2022-09-02T20:15:44.038Z,78.34
2022-09-02T20:18:32.969Z,78.15
2022-09-02T20:21:07.069Z,78.55
2022-09-02T20:23:54.002Z,78.60
2022-09-02T20:27:11.045Z,78.64
2022-09-02T20:30:21.982Z,79.11
2022-09-02T20:33:14.021Z,79.30
2022-09-02T20:36:24.959Z,79.69
2022-09-02T20:39:31.027Z,79.32
2022-09-02T20:42:49.975Z,79.00
2022-09-02T20:45:51.997Z,79.46
2022-09-02T20:48:55.977Z,79.78
2022-09-02T20:51:48.966Z,80.12
2022-09-02T20:54:46.215Z,80.71
2022-09-02T20:57:46.954Z,80.50
2022-09-02T21:00:24.098Z,80.58
2022-09-02T21:03:17.978Z,80.73
2022-09-02T21:06:04.993Z,80.81
2022-09-02T21:09:06.003Z,81.06
2022-09-02T21:11:49.920Z,81.26
2022-09-02T21:14:52.979Z,81.83
2022-09-02T21:17:52.108Z,81.98
2022-09-02T21:20:53.005Z,81.72
2022-09-02T21:23:29.264Z,81.96
2022-09-02T21:27:09.001Z,81.96
2022-09-02T21:29:57.919Z,82.58
2022-09-02T21:32:53.016Z,82.67
2022-09-02T21:35:39.989Z,82.83
2022-09-02T21:38:35.028Z,83.01
2022-09-02T21:41:34.023Z,82.87
2022-09-02T21:44:43.010Z,83.47
2022-09-02T21:47:56.020Z,82.95
2022-09-02T21:51:16.009Z,83.64
2022-09-02T21:54:05.023Z,84.04
2022-09-02T21:57:38.023Z,83.76
2022-09-02T22:00:32.074Z,84.02
2022-09-02T22:03:37.011Z,83.58
2022-09-02T22:06:19.082Z,84.29
2022-09-02T22:09:21.020Z,84.34
2022-09-02T22:12:03.654Z,84.29
2022-09-02T22:14:59.034Z,84.56
2022-09-02T22:18:11.024Z,84.66
2022-09-02T22:21:10.008Z,84.79
2022-09-02T22:24:01.043Z,84.36
2022-09-02T22:27:10.021Z,84.64
2022-09-02T22:30:21.045Z,84.90
2022-09-02T22:33:18.039Z,85.02
2022-09-02T22:36:29.125Z,84.89
2022-09-02T22:39:17.030Z,85.20
2022-09-02T22:41:58.880Z,84.94
2022-09-02T22:45:05.046Z,85.24
2022-09-02T22:48:08.033Z,85.33
2022-09-02T22:51:28.039Z,85.41
2022-09-02T22:54:22.042Z,85.78
2022-09-02T22:57:37.051Z,85.49
2022-09-02T23:00:16.123Z,85.52
2022-09-02T23:03:21.091Z,85.66
2022-09-02T23:06:04.050Z,85.84
2022-09-02T23:08:58.043Z,86.21
2022-09-02T23:11:54.054Z,86.36
2022-09-02T23:14:48.137Z,86.37
2022-09-02T23:17:41.045Z,86.45
2022-09-02T23:20:25.425Z,86.50
2022-09-02T23:23:33.062Z,86.06
2022-09-02T23:26:32.055Z,86.71
2022-09-02T23:29:33.067Z,86.78
2022-09-02T23:33:04.122Z,86.89
2022-09-02T23:36:00.064Z,86.75
2022-09-02T23:38:53.067Z,87.17
2022-09-02T23:41:48.082Z,87.40
2022-09-02T23:44:36.080Z,87.36
2022-09-02T23:47:24.149Z,87.19
2022-09-02T23:50:38.073Z,87.51
2022-09-02T23:54:04.067Z,87.48
2022-09-02T23:57:34.084Z,87.51
